Thursday, January 17, 2019, 6:25 AM EST
Back to Local

KACY, Atlantic City International

Location: Absecon, NJ, United States Lat: 39.467
Local Time: 6:25 AM EST (11:25 GMT) Lon: -74.583
Time Zone: US/Eastern Elev: 75 ft

Show me the last for .
Show Decoded

2019-01-17 05:54 METAR KACY 171054Z AUTO 35005KT 10SM CLR M04/M07 A3034 RMK AO2 SLP274 T10441072
                 =
2019-01-17 04:54 METAR KACY 170954Z AUTO 36004KT 10SM CLR M04/M07 A3032 RMK AO2 SLP267 T10441072
                 =
2019-01-17 03:54 METAR KACY 170854Z AUTO 35003KT 10SM CLR M04/M06 A3031 RMK AO2 SLP263 T10391061
                 51013 =
2019-01-17 02:54 METAR KACY 170754Z AUTO 31004KT 10SM CLR M03/M06 A3030 RMK AO2 SLP261 T10331056
                 =
2019-01-17 01:54 METAR KACY 170654Z AUTO 28004KT 10SM CLR M02/M06 A3029 RMK AO2 SLP256 T10221056
                 =
2019-01-17 00:54 METAR KACY 170554Z AUTO 25008KT 10SM SCT047 00/M04 A3027 RMK AO2 SLP250
                 T00001044 10028 20000 51012 =
2019-01-16 23:54 METAR KACY 170454Z AUTO 25008KT 10SM CLR 00/M04 A3026 RMK AO2 SLP248 T00001044
                 400281078 =
2019-01-16 22:54 METAR KACY 170354Z AUTO 25004KT 10SM CLR 01/M04 A3025 RMK AO2 SLP244 T00061044 =
2019-01-16 21:54 METAR KACY 170254Z AUTO 25006KT 10SM CLR 02/M04 A3023 RMK AO2 SLP238 T00171039
                 53014 =
2019-01-16 20:54 METAR KACY 170154Z AUTO 27006KT 10SM CLR 02/M04 A3021 RMK AO2 SLP231 T00221039 =
2019-01-16 19:54 METAR KACY 170054Z AUTO 30014KT 10SM BKN044 03/M03 A3020 RMK AO2 SLP229
                 T00281033 =
2019-01-16 18:54 METAR KACY 162354Z 28006KT 10SM OVC042 03/M02 A3019 RMK AO2 SLP223 T00281022
                 10028 20028 51023 =
2019-01-16 17:54 METAR KACY 162254Z 26008KT 10SM OVC040 03/M02 A3017 RMK AO2 SLP216 T00281022 =
2019-01-16 16:54 METAR KACY 162154Z 28008KT 10SM OVC038 03/M02 A3014 RMK AO2 SLP208 T00281022 =
2019-01-16 15:54 METAR KACY 162054Z 27007KT 10SM OVC036 03/M02 A3012 RMK AO2 SLP200 T00281022
                 53004 =
2019-01-16 14:54 METAR KACY 161954Z 27007KT 10SM OVC034 03/M03 A3010 RMK AO2 SLP194 T00281028 =
2019-01-16 13:54 METAR KACY 161854Z 27009KT 10SM OVC034 03/M02 A3010 RMK AO2 SLP193 T00281022 =
2019-01-16 12:54 METAR KACY 161754Z 27007KT 10SM OVC033 02/M03 A3011 RMK AO2 SLP196 T00221028
                 10022 21033 58013 =
2019-01-16 11:54 METAR KACY 161654Z 28010KT 10SM OVC033 02/M03 A3013 RMK AO2 SLP204 T00221028 =
2019-01-16 10:54 METAR KACY 161554Z 26007KT 10SM OVC033 02/M03 A3015 RMK AO2 SLP210 T00171028 =
2019-01-16 09:54 METAR KACY 161454Z 26008KT 9SM OVC033 00/M03 A3015 RMK AO2 SLP209 T00001028
                 53013 =
2019-01-16 08:54 METAR KACY 161354Z AUTO 25006KT 6SM BR OVC034 M01/M03 A3013 RMK AO2 SLP203
                 T10061028 =
2019-01-16 07:54 METAR KACY 161254Z AUTO 24004KT 5SM BR OVC030 M02/M03 A3011 RMK AO2 SLP198
                 T10221033 =
2019-01-16 06:54 METAR KACY 161154Z AUTO 24004KT 6SM BR SCT031 M03/M04 A3011 RMK AO2 SLP197 I1000
                 I6000 T10331044 11033 21078 53003 =

Support USWX by starting your Amazon purchase here.